sensor_id;sensor_type;location;lat;lon;timestamp;temperature;humidity
7117;DHT22;3600;48.568;7.870;2023-08-17T00:01:33;20.40;99.90
7117;DHT22;3600;48.568;7.870;2023-08-17T00:04:00;20.60;99.90
7117;DHT22;3600;48.568;7.870;2023-08-17T00:06:27;20.60;99.90
7117;DHT22;3600;48.568;7.870;2023-08-17T00:08:54;20.60;99.90
7117;DHT22;3600;48.568;7.870;2023-08-17T00:11:20;20.70;99.90
7117;DHT22;3600;48.568;7.870;2023-08-17T00:13:48;20.80;99.90
7117;DHT22;3600;48.568;7.870;2023-08-17T00:16:15;20.60;99.90
7117;DHT22;3600;48.568;7.870;2023-08-17T00:18:41;20.70;99.90
7117;DHT22;3600;48.568;7.870;2023-08-17T00:21:08;20.50;99.90
7117;DHT22;3600;48.568;7.870;2023-08-17T00:23:35;20.40;99.90
7117;DHT22;3600;48.568;7.870;2023-08-17T00:26:02;20.40;99.90
7117;DHT22;3600;48.568;7.870;2023-08-17T00:28:29;20.40;99.90
7117;DHT22;3600;48.568;7.870;2023-08-17T00:30:55;20.40;99.90
7117;DHT22;3600;48.568;7.870;2023-08-17T00:33:22;20.40;99.90
7117;DHT22;3600;48.568;7.870;2023-08-17T00:35:50;20.50;99.90
7117;DHT22;3600;48.568;7.870;2023-08-17T00:38:17;20.40;99.90
7117;DHT22;3600;48.568;7.870;2023-08-17T00:40:44;20.30;99.90
7117;DHT22;3600;48.568;7.870;2023-08-17T00:43:11;20.30;99.90
7117;DHT22;3600;48.568;7.870;2023-08-17T00:45:37;20.30;99.90
7117;DHT22;3600;48.568;7.870;2023-08-17T00:48:06;20.30;99.90
7117;DHT22;3600;48.568;7.870;2023-08-17T00:50:35;20.40;99.90
7117;DHT22;3600;48.568;7.870;2023-08-17T00:53:03;20.50;99.90
7117;DHT22;3600;48.568;7.870;2023-08-17T00:55:30;20.60;99.90
7117;DHT22;3600;48.568;7.870;2023-08-17T00:57:57;20.60;99.90
7117;DHT22;3600;48.568;7.870;2023-08-17T01:00:25;20.70;99.90
7117;DHT22;3600;48.568;7.870;2023-08-17T01:02:54;20.50;99.90
7117;DHT22;3600;48.568;7.870;2023-08-17T01:05:23;20.40;99.90
7117;DHT22;3600;48.568;7.870;2023-08-17T01:07:50;20.40;99.90
7117;DHT22;3600;48.568;7.870;2023-08-17T01:10:17;20.50;99.90
7117;DHT22;3600;48.568;7.870;2023-08-17T01:12:52;20.50;99.90
7117;DHT22;3600;48.568;7.870;2023-08-17T01:15:42;20.40;99.90
7117;DHT22;3600;48.568;7.870;2023-08-17T01:18:32;20.10;99.90
7117;DHT22;3600;48.568;7.870;2023-08-17T01:21:00;20.20;99.90
7117;DHT22;3600;48.568;7.870;2023-08-17T01:23:28;20.10;99.90
7117;DHT22;3600;48.568;7.870;2023-08-17T01:25:55;20.30;99.90
7117;DHT22;3600;48.568;7.870;2023-08-17T01:28:24;20.30;99.90
7117;DHT22;3600;48.568;7.870;2023-08-17T01:31:12;20.30;99.90
7117;DHT22;3600;48.568;7.870;2023-08-17T01:33:54;20.40;99.90
7117;DHT22;3600;48.568;7.870;2023-08-17T01:36:30;20.20;99.90
7117;DHT22;3600;48.568;7.870;2023-08-17T01:38:59;20.30;99.90
7117;DHT22;3600;48.568;7.870;2023-08-17T01:41:27;20.20;99.90
7117;DHT22;3600;48.568;7.870;2023-08-17T01:43:55;20.10;99.90
7117;DHT22;3600;48.568;7.870;2023-08-17T01:46:22;20.30;99.90
7117;DHT22;3600;48.568;7.870;2023-08-17T01:48:49;20.20;99.90
7117;DHT22;3600;48.568;7.870;2023-08-17T01:51:19;20.20;99.90
7117;DHT22;3600;48.568;7.870;2023-08-17T01:53:49;20.10;99.90
7117;DHT22;3600;48.568;7.870;2023-08-17T01:56:16;20.00;99.90
7117;DHT22;3600;48.568;7.870;2023-08-17T01:58:43;20.10;99.90
7117;DHT22;3600;48.568;7.870;2023-08-17T02:01:16;20.10;99.90
7117;DHT22;3600;48.568;7.870;2023-08-17T02:03:43;20.00;99.90
7117;DHT22;3600;48.568;7.870;2023-08-17T02:06:10;20.00;99.90
7117;DHT22;3600;48.568;7.870;2023-08-17T02:08:57;20.10;99.90
7117;DHT22;3600;48.568;7.870;2023-08-17T02:11:24;20.10;99.90
7117;DHT22;3600;48.568;7.870;2023-08-17T02:13:51;20.00;99.90
7117;DHT22;3600;48.568;7.870;2023-08-17T02:16:18;19.90;99.90
7117;DHT22;3600;48.568;7.870;2023-08-17T02:18:45;19.80;99.90
7117;DHT22;3600;48.568;7.870;2023-08-17T02:21:11;19.60;99.90
7117;DHT22;3600;48.568;7.870;2023-08-17T02:23:38;19.60;99.90
7117;DHT22;3600;48.568;7.870;2023-08-17T02:26:05;19.60;99.90
7117;DHT22;3600;48.568;7.870;2023-08-17T02:28:32;19.50;99.90
7117;DHT22;3600;48.568;7.870;2023-08-17T02:30:59;19.60;99.90
7117;DHT22;3600;48.568;7.870;2023-08-17T02:33:26;19.60;99.90
7117;DHT22;3600;48.568;7.870;2023-08-17T02:35:53;19.70;99.90
7117;DHT22;3600;48.568;7.870;2023-08-17T02:38:20;19.70;99.90
7117;DHT22;3600;48.568;7.870;2023-08-17T02:40:49;19.80;99.90
7117;DHT22;3600;48.568;7.870;2023-08-17T02:43:16;19.70;99.90
7117;DHT22;3600;48.568;7.870;2023-08-17T02:45:53;19.60;99.90
7117;DHT22;3600;48.568;7.870;2023-08-17T02:48:20;19.50;99.90
7117;DHT22;3600;48.568;7.870;2023-08-17T02:50:46;19.50;99.90
7117;DHT22;3600;48.568;7.870;2023-08-17T02:53:13;19.70;99.90
7117;DHT22;3600;48.568;7.870;2023-08-17T02:55:40;19.80;99.90
7117;DHT22;3600;48.568;7.870;2023-08-17T02:58:07;19.70;99.90
7117;DHT22;3600;48.568;7.870;2023-08-17T03:00:34;19.60;99.90
7117;DHT22;3600;48.568;7.870;2023-08-17T03:03:00;19.50;99.90
7117;DHT22;3600;48.568;7.870;2023-08-17T03:05:27;19.30;99.90
7117;DHT22;3600;48.568;7.870;2023-08-17T03:07:54;19.40;99.90
7117;DHT22;3600;48.568;7.870;2023-08-17T03:10:21;19.30;99.90
7117;DHT22;3600;48.568;7.870;2023-08-17T03:12:48;19.30;99.90
7117;DHT22;3600;48.568;7.870;2023-08-17T03:15:15;19.30;99.90
7117;DHT22;3600;48.568;7.870;2023-08-17T03:17:43;19.40;99.90
7117;DHT22;3600;48.568;7.870;2023-08-17T03:20:10;19.50;99.90
7117;DHT22;3600;48.568;7.870;2023-08-17T03:22:37;19.60;99.90
7117;DHT22;3600;48.568;7.870;2023-08-17T03:25:05;19.50;99.90
7117;DHT22;3600;48.568;7.870;2023-08-17T03:27:32;19.60;99.90
7117;DHT22;3600;48.568;7.870;2023-08-17T03:29:58;19.70;99.90
7117;DHT22;3600;48.568;7.870;2023-08-17T03:32:25;19.70;99.90
7117;DHT22;3600;48.568;7.870;2023-08-17T03:34:52;19.80;99.90
7117;DHT22;3600;48.568;7.870;2023-08-17T03:37:19;19.80;99.90
7117;DHT22;3600;48.568;7.870;2023-08-17T03:39:46;19.40;99.90
7117;DHT22;3600;48.568;7.870;2023-08-17T03:42:13;19.50;99.90
7117;DHT22;3600;48.568;7.870;2023-08-17T03:44:40;19.60;99.90
7117;DHT22;3600;48.568;7.870;2023-08-17T03:47:06;19.70;99.90
7117;DHT22;3600;48.568;7.870;2023-08-17T03:49:33;19.30;99.90
7117;DHT22;3600;48.568;7.870;2023-08-17T03:52:00;19.00;99.90
7117;DHT22;3600;48.568;7.870;2023-08-17T03:54:27;18.90;99.90
7117;DHT22;3600;48.568;7.870;2023-08-17T03:56:54;18.90;99.90
7117;DHT22;3600;48.568;7.870;2023-08-17T03:59:20;18.90;99.90
7117;DHT22;3600;48.568;7.870;2023-08-17T04:01:47;19.10;99.90
7117;DHT22;3600;48.568;7.870;2023-08-17T04:04:14;19.30;99.90
7117;DHT22;3600;48.568;7.870;2023-08-17T04:06:41;19.40;99.90
7117;DHT22;3600;48.568;7.870;2023-08-17T04:09:08;19.40;99.90
7117;DHT22;3600;48.568;7.870;2023-08-17T04:11:35;19.40;99.90
7117;DHT22;3600;48.568;7.870;2023-08-17T04:14:03;19.40;99.90
7117;DHT22;3600;48.568;7.870;2023-08-17T04:16:31;19.50;99.90
7117;DHT22;3600;48.568;7.870;2023-08-17T04:18:58;19.50;99.90
7117;DHT22;3600;48.568;7.870;2023-08-17T04:21:25;19.50;99.90
7117;DHT22;3600;48.568;7.870;2023-08-17T04:23:52;19.50;99.90
7117;DHT22;3600;48.568;7.870;2023-08-17T04:26:19;19.40;99.90
7117;DHT22;3600;48.568;7.870;2023-08-17T04:28:46;19.40;99.90
7117;DHT22;3600;48.568;7.870;2023-08-17T04:31:13;19.50;99.90
7117;DHT22;3600;48.568;7.870;2023-08-17T04:33:40;19.40;99.90
7117;DHT22;3600;48.568;7.870;2023-08-17T04:36:07;19.40;99.90
7117;DHT22;3600;48.568;7.870;2023-08-17T04:38:34;18.90;99.90
7117;DHT22;3600;48.568;7.870;2023-08-17T04:41:00;18.70;99.90
7117;DHT22;3600;48.568;7.870;2023-08-17T04:43:27;18.50;99.90
7117;DHT22;3600;48.568;7.870;2023-08-17T04:45:54;18.70;99.90
7117;DHT22;3600;48.568;7.870;2023-08-17T04:48:21;18.80;99.90
7117;DHT22;3600;48.568;7.870;2023-08-17T04:50:48;18.80;99.90
7117;DHT22;3600;48.568;7.870;2023-08-17T04:53:15;18.80;99.90
7117;DHT22;3600;48.568;7.870;2023-08-17T04:55:42;18.80;99.90
7117;DHT22;3600;48.568;7.870;2023-08-17T04:58:09;18.80;99.90
7117;DHT22;3600;48.568;7.870;2023-08-17T05:00:35;18.80;99.90
7117;DHT22;3600;48.568;7.870;2023-08-17T05:03:02;18.80;99.90
7117;DHT22;3600;48.568;7.870;2023-08-17T05:05:30;18.70;99.90
7117;DHT22;3600;48.568;7.870;2023-08-17T05:07:56;18.60;99.90
7117;DHT22;3600;48.568;7.870;2023-08-17T05:10:23;18.50;99.90
7117;DHT22;3600;48.568;7.870;2023-08-17T05:12:50;18.40;99.90
7117;DHT22;3600;48.568;7.870;2023-08-17T05:15:17;18.30;99.90
7117;DHT22;3600;48.568;7.870;2023-08-17T05:17:44;18.30;99.90
7117;DHT22;3600;48.568;7.870;2023-08-17T05:20:11;18.30;99.90
7117;DHT22;3600;48.568;7.870;2023-08-17T05:22:39;18.50;99.90
7117;DHT22;3600;48.568;7.870;2023-08-17T05:25:06;18.60;99.90
7117;DHT22;3600;48.568;7.870;2023-08-17T05:27:33;18.60;99.90
7117;DHT22;3600;48.568;7.870;2023-08-17T05:30:00;18.50;99.90
7117;DHT22;3600;48.568;7.870;2023-08-17T05:32:27;18.50;99.90
7117;DHT22;3600;48.568;7.870;2023-08-17T05:34:54;18.40;99.90
7117;DHT22;3600;48.568;7.870;2023-08-17T05:37:21;18.40;99.90
7117;DHT22;3600;48.568;7.870;2023-08-17T05:39:47;18.40;99.90
7117;DHT22;3600;48.568;7.870;2023-08-17T05:42:14;18.50;99.90
7117;DHT22;3600;48.568;7.870;2023-08-17T05:44:41;18.70;99.90
7117;DHT22;3600;48.568;7.870;2023-08-17T05:47:08;18.50;99.90
7117;DHT22;3600;48.568;7.870;2023-08-17T05:49:35;18.50;99.90
7117;DHT22;3600;48.568;7.870;2023-08-17T05:52:02;18.70;99.90
7117;DHT22;3600;48.568;7.870;2023-08-17T05:54:28;18.60;99.90
7117;DHT22;3600;48.568;7.870;2023-08-17T05:56:55;18.60;99.90
7117;DHT22;3600;48.568;7.870;2023-08-17T05:59:22;18.60;99.90
7117;DHT22;3600;48.568;7.870;2023-08-17T06:01:49;18.50;99.90
7117;DHT22;3600;48.568;7.870;2023-08-17T06:04:16;18.80;99.90
7117;DHT22;3600;48.568;7.870;2023-08-17T06:06:42;18.80;99.90
7117;DHT22;3600;48.568;7.870;2023-08-17T06:09:09;18.90;99.90
7117;DHT22;3600;48.568;7.870;2023-08-17T06:11:36;19.10;99.90
7117;DHT22;3600;48.568;7.870;2023-08-17T06:14:03;19.30;99.90
7117;DHT22;3600;48.568;7.870;2023-08-17T06:16:30;19.10;99.90
7117;DHT22;3600;48.568;7.870;2023-08-17T06:18:57;19.00;99.90
7117;DHT22;3600;48.568;7.870;2023-08-17T06:21:29;19.00;99.90
7117;DHT22;3600;48.568;7.870;2023-08-17T06:23:56;19.00;99.90
7117;DHT22;3600;48.568;7.870;2023-08-17T06:26:29;19.30;99.90
7117;DHT22;3600;48.568;7.870;2023-08-17T06:28:56;19.40;99.90
7117;DHT22;3600;48.568;7.870;2023-08-17T06:31:23;19.70;99.90
7117;DHT22;3600;48.568;7.870;2023-08-17T06:33:54;19.80;99.90
7117;DHT22;3600;48.568;7.870;2023-08-17T06:36:21;19.90;99.90
7117;DHT22;3600;48.568;7.870;2023-08-17T06:38:48;19.90;99.90
7117;DHT22;3600;48.568;7.870;2023-08-17T06:41:16;19.90;99.90
7117;DHT22;3600;48.568;7.870;2023-08-17T06:43:42;20.00;99.90
7117;DHT22;3600;48.568;7.870;2023-08-17T06:46:09;19.70;99.90
7117;DHT22;3600;48.568;7.870;2023-08-17T06:48:36;19.70;99.90
7117;DHT22;3600;48.568;7.870;2023-08-17T06:51:03;20.00;99.90
7117;DHT22;3600;48.568;7.870;2023-08-17T06:53:31;20.10;99.90
7117;DHT22;3600;48.568;7.870;2023-08-17T06:55:58;19.90;99.90
7117;DHT22;3600;48.568;7.870;2023-08-17T06:58:28;19.90;99.90
7117;DHT22;3600;48.568;7.870;2023-08-17T07:00:55;20.20;99.90
7117;DHT22;3600;48.568;7.870;2023-08-17T07:03:22;20.30;99.90
7117;DHT22;3600;48.568;7.870;2023-08-17T07:05:49;20.30;99.90
7117;DHT22;3600;48.568;7.870;2023-08-17T07:08:16;20.50;99.90
7117;DHT22;3600;48.568;7.870;2023-08-17T07:10:43;20.40;99.90
7117;DHT22;3600;48.568;7.870;2023-08-17T07:13:10;20.40;99.90
7117;DHT22;3600;48.568;7.870;2023-08-17T07:15:37;20.40;99.90
7117;DHT22;3600;48.568;7.870;2023-08-17T07:18:06;20.00;99.90
7117;DHT22;3600;48.568;7.870;2023-08-17T07:20:33;20.30;99.90
7117;DHT22;3600;48.568;7.870;2023-08-17T07:23:00;20.30;99.90
7117;DHT22;3600;48.568;7.870;2023-08-17T07:25:26;20.40;99.90
7117;DHT22;3600;48.568;7.870;2023-08-17T07:27:53;20.40;99.90
7117;DHT22;3600;48.568;7.870;2023-08-17T07:30:20;20.10;99.90
7117;DHT22;3600;48.568;7.870;2023-08-17T07:32:47;19.90;99.90
7117;DHT22;3600;48.568;7.870;2023-08-17T07:35:14;20.00;99.90
7117;DHT22;3600;48.568;7.870;2023-08-17T07:37:41;20.30;99.90
7117;DHT22;3600;48.568;7.870;2023-08-17T07:40:11;20.60;99.90
7117;DHT22;3600;48.568;7.870;2023-08-17T07:42:38;20.60;99.90
7117;DHT22;3600;48.568;7.870;2023-08-17T07:45:05;20.40;99.90
7117;DHT22;3600;48.568;7.870;2023-08-17T07:47:34;20.60;99.90
7117;DHT22;3600;48.568;7.870;2023-08-17T07:50:04;20.60;99.90
7117;DHT22;3600;48.568;7.870;2023-08-17T07:52:31;20.40;99.90
7117;DHT22;3600;48.568;7.870;2023-08-17T07:54:58;20.30;99.90
7117;DHT22;3600;48.568;7.870;2023-08-17T07:57:25;20.70;99.90
7117;DHT22;3600;48.568;7.870;2023-08-17T07:59:53;20.90;99.90
7117;DHT22;3600;48.568;7.870;2023-08-17T08:02:20;21.20;99.90
7117;DHT22;3600;48.568;7.870;2023-08-17T08:04:47;21.00;99.90
7117;DHT22;3600;48.568;7.870;2023-08-17T08:07:14;20.70;99.90
7117;DHT22;3600;48.568;7.870;2023-08-17T08:09:41;20.40;99.90
7117;DHT22;3600;48.568;7.870;2023-08-17T08:12:07;20.80;99.90
7117;DHT22;3600;48.568;7.870;2023-08-17T08:14:35;21.10;99.90
7117;DHT22;3600;48.568;7.870;2023-08-17T08:17:02;21.20;99.90
7117;DHT22;3600;48.568;7.870;2023-08-17T08:19:29;21.30;99.90
7117;DHT22;3600;48.568;7.870;2023-08-17T08:21:55;21.40;99.90
7117;DHT22;3600;48.568;7.870;2023-08-17T08:24:22;21.60;99.90
7117;DHT22;3600;48.568;7.870;2023-08-17T08:27:03;21.80;99.90
7117;DHT22;3600;48.568;7.870;2023-08-17T08:29:30;21.70;99.90
7117;DHT22;3600;48.568;7.870;2023-08-17T08:31:57;21.80;99.90
7117;DHT22;3600;48.568;7.870;2023-08-17T08:34:26;21.80;99.90
7117;DHT22;3600;48.568;7.870;2023-08-17T08:36:53;21.90;99.90
7117;DHT22;3600;48.568;7.870;2023-08-17T08:39:20;21.90;99.90
7117;DHT22;3600;48.568;7.870;2023-08-17T08:41:47;22.00;99.90
7117;DHT22;3600;48.568;7.870;2023-08-17T08:44:14;22.10;99.90
7117;DHT22;3600;48.568;7.870;2023-08-17T08:46:41;22.30;99.90
7117;DHT22;3600;48.568;7.870;2023-08-17T08:49:11;22.30;99.90
7117;DHT22;3600;48.568;7.870;2023-08-17T08:51:43;22.30;99.90
7117;DHT22;3600;48.568;7.870;2023-08-17T08:54:13;22.40;99.90
7117;DHT22;3600;48.568;7.870;2023-08-17T08:56:43;22.50;99.90
7117;DHT22;3600;48.568;7.870;2023-08-17T08:59:14;22.50;99.90
7117;DHT22;3600;48.568;7.870;2023-08-17T09:01:41;22.50;99.90
7117;DHT22;3600;48.568;7.870;2023-08-17T09:04:08;22.50;99.90
7117;DHT22;3600;48.568;7.870;2023-08-17T09:06:36;22.70;99.90
7117;DHT22;3600;48.568;7.870;2023-08-17T09:09:04;22.80;99.90
7117;DHT22;3600;48.568;7.870;2023-08-17T09:11:32;22.80;99.90
7117;DHT22;3600;48.568;7.870;2023-08-17T09:13:59;22.80;99.90
7117;DHT22;3600;48.568;7.870;2023-08-17T09:16:27;22.80;99.90
7117;DHT22;3600;48.568;7.870;2023-08-17T09:18:54;22.80;99.90
7117;DHT22;3600;48.568;7.870;2023-08-17T09:21:24;22.80;99.90
7117;DHT22;3600;48.568;7.870;2023-08-17T09:23:52;22.80;99.90
7117;DHT22;3600;48.568;7.870;2023-08-17T09:26:24;22.90;99.90
7117;DHT22;3600;48.568;7.870;2023-08-17T09:28:52;23.00;99.90
7117;DHT22;3600;48.568;7.870;2023-08-17T09:31:24;23.00;99.90
7117;DHT22;3600;48.568;7.870;2023-08-17T09:33:51;23.10;99.90
7117;DHT22;3600;48.568;7.870;2023-08-17T09:36:22;23.10;99.90
7117;DHT22;3600;48.568;7.870;2023-08-17T09:38:50;23.30;99.90
7117;DHT22;3600;48.568;7.870;2023-08-17T09:41:18;23.30;99.90
7117;DHT22;3600;48.568;7.870;2023-08-17T09:43:48;23.50;99.90
7117;DHT22;3600;48.568;7.870;2023-08-17T09:46:15;23.70;99.90
7117;DHT22;3600;48.568;7.870;2023-08-17T09:48:45;23.70;99.90
7117;DHT22;3600;48.568;7.870;2023-08-17T09:51:17;23.80;99.90
7117;DHT22;3600;48.568;7.870;2023-08-17T09:53:44;24.00;99.90
7117;DHT22;3600;48.568;7.870;2023-08-17T09:56:12;24.00;99.90
7117;DHT22;3600;48.568;7.870;2023-08-17T09:58:42;24.10;99.90
7117;DHT22;3600;48.568;7.870;2023-08-17T10:01:09;24.40;99.90
7117;DHT22;3600;48.568;7.870;2023-08-17T10:03:39;24.40;99.90
7117;DHT22;3600;48.568;7.870;2023-08-17T10:06:10;24.50;99.90
7117;DHT22;3600;48.568;7.870;2023-08-17T10:08:43;24.40;99.90
7117;DHT22;3600;48.568;7.870;2023-08-17T10:11:12;24.50;99.90
7117;DHT22;3600;48.568;7.870;2023-08-17T10:13:46;24.70;99.90
7117;DHT22;3600;48.568;7.870;2023-08-17T10:16:25;24.80;99.90
7117;DHT22;3600;48.568;7.870;2023-08-17T10:21:53;25.30;99.90
7117;DHT22;3600;48.568;7.870;2023-08-17T10:24:20;25.50;99.90
7117;DHT22;3600;48.568;7.870;2023-08-17T10:26:47;25.70;99.90
7117;DHT22;3600;48.568;7.870;2023-08-17T10:29:22;25.70;99.90
7117;DHT22;3600;48.568;7.870;2023-08-17T10:31:50;25.90;99.90
7117;DHT22;3600;48.568;7.870;2023-08-17T10:34:17;26.10;99.90
7117;DHT22;3600;48.568;7.870;2023-08-17T10:36:45;26.10;99.90
7117;DHT22;3600;48.568;7.870;2023-08-17T10:39:23;26.20;99.90
7117;DHT22;3600;48.568;7.870;2023-08-17T10:41:56;26.30;99.90
7117;DHT22;3600;48.568;7.870;2023-08-17T10:44:38;26.20;99.90
7117;DHT22;3600;48.568;7.870;2023-08-17T10:47:21;26.40;99.90
7117;DHT22;3600;48.568;7.870;2023-08-17T10:50:03;26.60;99.90
7117;DHT22;3600;48.568;7.870;2023-08-17T10:52:32;26.70;99.90
7117;DHT22;3600;48.568;7.870;2023-08-17T10:55:02;26.70;99.90
7117;DHT22;3600;48.568;7.870;2023-08-17T10:57:42;26.70;99.90
7117;DHT22;3600;48.568;7.870;2023-08-17T11:00:22;26.80;99.90
7117;DHT22;3600;48.568;7.870;2023-08-17T11:02:59;26.90;99.90
7117;DHT22;3600;48.568;7.870;2023-08-17T11:08:19;27.00;99.90
7117;DHT22;3600;48.568;7.870;2023-08-17T11:11:06;27.20;99.90
7117;DHT22;3600;48.568;7.870;2023-08-17T11:13:38;27.40;99.90
7117;DHT22;3600;48.568;7.870;2023-08-17T11:16:06;26.60;99.90
7117;DHT22;3600;48.568;7.870;2023-08-17T11:18:34;27.00;99.90
7117;DHT22;3600;48.568;7.870;2023-08-17T11:21:05;26.90;99.90
7117;DHT22;3600;48.568;7.870;2023-08-17T11:23:35;27.20;99.90
7117;DHT22;3600;48.568;7.870;2023-08-17T11:26:03;26.80;99.90
7117;DHT22;3600;48.568;7.870;2023-08-17T11:28:31;26.90;99.90
7117;DHT22;3600;48.568;7.870;2023-08-17T11:31:10;26.80;99.90
7117;DHT22;3600;48.568;7.870;2023-08-17T11:33:38;26.90;99.90
7117;DHT22;3600;48.568;7.870;2023-08-17T11:36:06;27.20;99.90
7117;DHT22;3600;48.568;7.870;2023-08-17T11:38:38;27.40;99.90
7117;DHT22;3600;48.568;7.870;2023-08-17T11:41:05;27.00;99.90
7117;DHT22;3600;48.568;7.870;2023-08-17T11:43:35;26.50;99.90
7117;DHT22;3600;48.568;7.870;2023-08-17T11:46:02;26.90;99.90
7117;DHT22;3600;48.568;7.870;2023-08-17T11:48:30;26.90;99.90
7117;DHT22;3600;48.568;7.870;2023-08-17T11:51:02;26.80;99.90
7117;DHT22;3600;48.568;7.870;2023-08-17T11:53:35;26.70;99.90
7117;DHT22;3600;48.568;7.870;2023-08-17T11:56:02;27.20;99.90
7117;DHT22;3600;48.568;7.870;2023-08-17T11:58:42;27.40;99.90
7117;DHT22;3600;48.568;7.870;2023-08-17T12:01:11;27.30;99.90
7117;DHT22;3600;48.568;7.870;2023-08-17T12:03:39;26.50;99.90
7117;DHT22;3600;48.568;7.870;2023-08-17T12:06:09;27.00;99.90
7117;DHT22;3600;48.568;7.870;2023-08-17T12:08:36;26.90;99.90
7117;DHT22;3600;48.568;7.870;2023-08-17T12:11:03;26.80;99.90
7117;DHT22;3600;48.568;7.870;2023-08-17T12:13:34;27.10;99.90
7117;DHT22;3600;48.568;7.870;2023-08-17T12:16:02;27.20;99.90
7117;DHT22;3600;48.568;7.870;2023-08-17T12:18:32;27.50;99.90
7117;DHT22;3600;48.568;7.870;2023-08-17T12:21:00;27.40;99.90
7117;DHT22;3600;48.568;7.870;2023-08-17T12:23:27;27.10;99.90
7117;DHT22;3600;48.568;7.870;2023-08-17T12:25:54;26.70;99.90
7117;DHT22;3600;48.568;7.870;2023-08-17T12:28:23;27.40;99.90
7117;DHT22;3600;48.568;7.870;2023-08-17T12:30:59;27.70;99.90
7117;DHT22;3600;48.568;7.870;2023-08-17T12:33:26;26.80;99.90
7117;DHT22;3600;48.568;7.870;2023-08-17T12:35:53;26.90;99.90
7117;DHT22;3600;48.568;7.870;2023-08-17T12:38:21;27.30;99.90
7117;DHT22;3600;48.568;7.870;2023-08-17T12:40:48;27.00;99.90
7117;DHT22;3600;48.568;7.870;2023-08-17T12:43:15;27.30;99.90
7117;DHT22;3600;48.568;7.870;2023-08-17T12:45:41;27.20;99.90
7117;DHT22;3600;48.568;7.870;2023-08-17T12:48:08;27.10;99.90
7117;DHT22;3600;48.568;7.870;2023-08-17T12:50:35;27.30;99.90
7117;DHT22;3600;48.568;7.870;2023-08-17T12:53:09;27.20;99.90
7117;DHT22;3600;48.568;7.870;2023-08-17T12:55:36;26.70;99.90
7117;DHT22;3600;48.568;7.870;2023-08-17T12:58:03;27.00;99.90
7117;DHT22;3600;48.568;7.870;2023-08-17T13:00:31;27.10;99.90
7117;DHT22;3600;48.568;7.870;2023-08-17T13:02:58;27.20;99.90
7117;DHT22;3600;48.568;7.870;2023-08-17T13:05:25;27.20;99.90
7117;DHT22;3600;48.568;7.870;2023-08-17T13:07:52;27.00;99.90
7117;DHT22;3600;48.568;7.870;2023-08-17T13:10:19;27.10;99.90
7117;DHT22;3600;48.568;7.870;2023-08-17T13:12:46;27.10;99.90
7117;DHT22;3600;48.568;7.870;2023-08-17T13:15:14;27.50;99.90
7117;DHT22;3600;48.568;7.870;2023-08-17T13:17:41;27.60;99.90
7117;DHT22;3600;48.568;7.870;2023-08-17T13:20:08;27.20;99.90
7117;DHT22;3600;48.568;7.870;2023-08-17T13:22:36;27.00;99.90
7117;DHT22;3600;48.568;7.870;2023-08-17T13:25:03;27.20;99.90
7117;DHT22;3600;48.568;7.870;2023-08-17T13:27:30;27.20;99.90
7117;DHT22;3600;48.568;7.870;2023-08-17T13:29:57;27.30;99.90
7117;DHT22;3600;48.568;7.870;2023-08-17T13:32:28;27.20;99.90
7117;DHT22;3600;48.568;7.870;2023-08-17T13:34:55;26.90;99.90
7117;DHT22;3600;48.568;7.870;2023-08-17T13:37:22;26.80;99.90
7117;DHT22;3600;48.568;7.870;2023-08-17T13:39:49;27.20;99.90
7117;DHT22;3600;48.568;7.870;2023-08-17T13:42:16;27.20;99.90
7117;DHT22;3600;48.568;7.870;2023-08-17T13:44:42;26.90;99.90
7117;DHT22;3600;48.568;7.870;2023-08-17T13:47:09;27.00;99.90
7117;DHT22;3600;48.568;7.870;2023-08-17T13:49:36;26.90;99.90
7117;DHT22;3600;48.568;7.870;2023-08-17T13:52:03;26.90;99.90
7117;DHT22;3600;48.568;7.870;2023-08-17T13:54:30;26.80;99.90
7117;DHT22;3600;48.568;7.870;2023-08-17T13:56:57;26.70;99.90
7117;DHT22;3600;48.568;7.870;2023-08-17T13:59:24;26.60;99.90
7117;DHT22;3600;48.568;7.870;2023-08-17T14:01:51;26.60;99.90
7117;DHT22;3600;48.568;7.870;2023-08-17T14:04:17;26.70;99.90
7117;DHT22;3600;48.568;7.870;2023-08-17T14:06:45;26.80;99.90
7117;DHT22;3600;48.568;7.870;2023-08-17T14:09:12;26.90;99.90
7117;DHT22;3600;48.568;7.870;2023-08-17T14:11:38;26.90;99.90
7117;DHT22;3600;48.568;7.870;2023-08-17T14:14:05;27.30;99.90
7117;DHT22;3600;48.568;7.870;2023-08-17T14:16:36;27.60;99.90
7117;DHT22;3600;48.568;7.870;2023-08-17T14:19:03;27.40;99.90
7117;DHT22;3600;48.568;7.870;2023-08-17T14:21:30;27.60;99.90
7117;DHT22;3600;48.568;7.870;2023-08-17T14:23:56;27.80;99.90
7117;DHT22;3600;48.568;7.870;2023-08-17T14:26:23;27.90;99.90
7117;DHT22;3600;48.568;7.870;2023-08-17T14:28:50;28.70;99.90
7117;DHT22;3600;48.568;7.870;2023-08-17T14:31:17;29.10;99.90
7117;DHT22;3600;48.568;7.870;2023-08-17T14:33:45;28.30;99.90
7117;DHT22;3600;48.568;7.870;2023-08-17T14:36:16;27.90;99.90
7117;DHT22;3600;48.568;7.870;2023-08-17T14:38:46;27.70;99.90
7117;DHT22;3600;48.568;7.870;2023-08-17T14:41:13;28.00;99.90
7117;DHT22;3600;48.568;7.870;2023-08-17T14:43:40;27.90;99.90
7117;DHT22;3600;48.568;7.870;2023-08-17T14:46:07;27.50;99.90
7117;DHT22;3600;48.568;7.870;2023-08-17T14:48:40;27.70;99.90
7117;DHT22;3600;48.568;7.870;2023-08-17T14:51:08;27.60;99.90
7117;DHT22;3600;48.568;7.870;2023-08-17T14:53:34;27.80;99.90
7117;DHT22;3600;48.568;7.870;2023-08-17T14:56:05;28.00;99.90
7117;DHT22;3600;48.568;7.870;2023-08-17T14:58:32;28.00;99.90
7117;DHT22;3600;48.568;7.870;2023-08-17T15:00:59;28.00;99.90
7117;DHT22;3600;48.568;7.870;2023-08-17T15:03:32;27.60;99.90
7117;DHT22;3600;48.568;7.870;2023-08-17T15:05:59;27.50;99.90
7117;DHT22;3600;48.568;7.870;2023-08-17T15:08:32;27.50;99.90
7117;DHT22;3600;48.568;7.870;2023-08-17T15:10:59;27.60;99.90
7117;DHT22;3600;48.568;7.870;2023-08-17T15:13:28;27.60;99.90
7117;DHT22;3600;48.568;7.870;2023-08-17T15:15:55;27.60;99.90
7117;DHT22;3600;48.568;7.870;2023-08-17T15:18:22;27.60;99.90
7117;DHT22;3600;48.568;7.870;2023-08-17T15:20:50;27.50;99.90
7117;DHT22;3600;48.568;7.870;2023-08-17T15:23:17;28.20;99.90
7117;DHT22;3600;48.568;7.870;2023-08-17T15:25:44;28.70;99.90
7117;DHT22;3600;48.568;7.870;2023-08-17T15:28:11;28.50;99.90
7117;DHT22;3600;48.568;7.870;2023-08-17T15:30:38;27.90;99.90
7117;DHT22;3600;48.568;7.870;2023-08-17T15:33:05;27.60;99.90
7117;DHT22;3600;48.568;7.870;2023-08-17T15:35:31;27.50;99.90
7117;DHT22;3600;48.568;7.870;2023-08-17T15:37:58;27.60;99.90
7117;DHT22;3600;48.568;7.870;2023-08-17T15:40:25;28.60;99.90
7117;DHT22;3600;48.568;7.870;2023-08-17T15:42:52;28.50;99.90
7117;DHT22;3600;48.568;7.870;2023-08-17T15:45:19;27.80;99.90
7117;DHT22;3600;48.568;7.870;2023-08-17T15:47:47;27.70;99.90
7117;DHT22;3600;48.568;7.870;2023-08-17T15:50:14;27.50;99.90
7117;DHT22;3600;48.568;7.870;2023-08-17T15:52:42;27.60;99.90
7117;DHT22;3600;48.568;7.870;2023-08-17T15:55:08;27.70;99.90
7117;DHT22;3600;48.568;7.870;2023-08-17T15:57:35;27.60;99.90
7117;DHT22;3600;48.568;7.870;2023-08-17T16:00:03;27.60;99.90
7117;DHT22;3600;48.568;7.870;2023-08-17T16:02:30;27.60;99.90
7117;DHT22;3600;48.568;7.870;2023-08-17T16:04:57;27.80;99.90
7117;DHT22;3600;48.568;7.870;2023-08-17T16:07:24;27.80;99.90
7117;DHT22;3600;48.568;7.870;2023-08-17T16:09:51;27.70;99.90
7117;DHT22;3600;48.568;7.870;2023-08-17T16:12:18;27.70;99.90
7117;DHT22;3600;48.568;7.870;2023-08-17T16:14:45;27.50;99.90